Time;durP1;ratioP1;P1;durP2;ratioP2;P2;SDS_P1;SDS_P2;PMS_P1;PMS_P2;Temp;Humidity;BMP_temperature;BMP_pressure;BME280_temperature;BME280_humidity;BME280_pressure;Samples;Min_cycle;Max_cycle;Signal;HPM_P1;HPM_P2
2022/01/25 00:08:44;;;;;;;55.47;30.98;;;;;;;4.45;73.54;103378.81;5026995;28;20092;-71
2022/01/25 00:25:04;;;;;;;51.95;30.80;;;;;;;4.37;73.95;103370.75;5028564;28;20030;-70
2022/01/25 00:27:42;;;;;;;55.38;31.13;;;;;;;4.37;74.06;103380.28;5027361;28;20031;-70
2022/01/25 00:30:25;;;;;;;55.85;31.42;;;;;;;4.35;74.17;103388.94;5023444;28;20468;-70
2022/01/25 00:32:52;;;;;;;57.88;32.28;;;;;;;4.32;74.02;103386.22;5029581;28;20110;-70
2022/01/25 00:35:19;;;;;;;57.80;30.80;;;;;;;4.32;74.06;103386.22;5031989;28;20038;-69
2022/01/25 00:37:46;;;;;;;61.17;33.15;;;;;;;4.32;74.11;103383.59;5032041;28;20045;-70
2022/01/25 00:40:13;;;;;;;57.60;32.55;;;;;;;4.32;74.02;103385.34;5027101;28;20592;-69
2022/01/25 00:42:40;;;;;;;58.03;31.55;;;;;;;4.33;73.95;103389.72;5034536;28;20034;-71
2022/01/25 00:45:10;;;;;;;58.13;32.80;;;;;;;4.32;73.92;103385.34;5026997;28;20098;-69
2022/01/25 00:47:40;;;;;;;59.80;31.65;;;;;;;4.30;73.92;103393.13;5022669;28;20131;-70
2022/01/25 00:50:14;;;;;;;57.10;32.13;;;;;;;4.29;73.97;103388.75;5028938;28;20089;-71
2022/01/25 00:55:12;;;;;;;57.13;30.42;;;;;;;4.30;74.08;103377.47;5025641;28;20096;-69
2022/01/25 00:57:39;;;;;;;56.72;32.28;;;;;;;4.31;74.22;103389.69;5032592;28;20053;-70
2022/01/25 01:00:10;;;;;;;54.10;30.42;;;;;;;4.34;74.24;103391.50;5019848;28;20105;-70
2022/01/25 01:02:37;;;;;;;59.35;31.17;;;;;;;4.38;74.18;103382.06;5028889;28;20046;-69
2022/01/25 01:05:05;;;;;;;53.00;30.08;;;;;;;4.37;74.03;103386.41;5027794;28;20038;-70
2022/01/25 01:07:33;;;;;;;57.40;31.63;;;;;;;4.36;74.10;103387.25;5017219;28;20038;-71
2022/01/25 01:10:01;;;;;;;55.53;30.58;;;;;;;4.35;74.08;103377.63;5018855;28;20050;-71
2022/01/25 01:15:10;;;;;;;53.38;29.98;;;;;;;4.34;74.35;103376.72;5025283;28;20047;-70
2022/01/25 01:31:30;;;;;;;58.53;32.65;;;;;;;4.28;74.56;103373.00;5017975;28;20117;-70
2022/01/25 01:42:15;;;;;;;56.30;30.55;;;;;;;4.26;74.94;103369.47;5033445;28;20054;-69
2022/01/25 01:45:11;;;;;;;61.67;31.90;;;;;;;4.25;74.82;103376.38;5025893;28;20555;-68
2022/01/25 01:47:48;;;;;;;62.17;31.75;;;;;;;4.26;74.66;103379.91;5033339;28;20036;-71
2022/01/25 01:50:28;;;;;;;63.83;33.65;;;;;;;4.24;74.75;103379.81;5033403;28;20054;-71
2022/01/25 01:52:56;;;;;;;60.03;31.90;;;;;;;4.23;74.75;103374.56;5036888;28;20109;-70
2022/01/25 01:55:25;;;;;;;57.40;33.20;;;;;;;4.22;74.63;103378.91;5022360;28;20485;-69
2022/01/25 01:57:54;;;;;;;59.22;32.45;;;;;;;4.22;74.71;103375.38;5023376;28;20070;-69
2022/01/25 02:00:30;;;;;;;62.72;32.42;;;;;;;4.22;74.79;103375.38;5038491;28;20099;-68
2022/01/25 02:03:00;;;;;;;58.17;33.13;;;;;;;4.21;74.94;103371.91;5027826;28;21814;-68
2022/01/25 02:05:30;;;;;;;58.78;30.50;;;;;;;4.22;74.93;103381.53;5023330;28;20039;-69
2022/01/25 02:07:58;;;;;;;59.42;31.10;;;;;;;4.24;75.09;103378.94;5028178;28;20097;-69
2022/01/25 02:10:26;;;;;;;62.60;32.53;;;;;;;4.23;75.06;103378.03;5026667;28;20100;-68
2022/01/25 02:12:55;;;;;;;61.47;32.90;;;;;;;4.23;75.08;103383.25;5020352;28;20049;-68
2022/01/25 02:15:26;;;;;;;62.15;33.97;;;;;;;4.24;75.00;103371.13;5030075;28;20030;-69
2022/01/25 02:23:29;;;;;;;58.88;33.28;;;;;;;4.25;75.26;103370.28;5029299;28;20085;-69
2022/01/25 02:26:00;;;;;;;58.70;32.63;;;;;;;4.24;75.10;103368.50;5028030;28;20432;-69
2022/01/25 02:28:32;;;;;;;57.85;31.60;;;;;;;4.23;75.19;103370.22;5016915;28;20035;-69
2022/01/25 02:31:00;;;;;;;54.67;32.28;;;;;;;4.20;75.22;103352.72;5029853;28;20042;-69
2022/01/25 02:33:28;;;;;;;58.58;32.80;;;;;;;4.19;75.40;103357.91;5021083;28;20042;-68
2022/01/25 02:35:58;;;;;;;60.30;30.40;;;;;;;4.18;75.65;103367.44;5029381;28;20042;-68
2022/01/25 02:38:28;;;;;;;60.75;33.20;;;;;;;4.18;75.49;103362.22;5025118;28;20124;-70
2022/01/25 02:40:58;;;;;;;60.13;33.47;;;;;;;4.17;75.67;103355.22;5022042;28;20051;-70
2022/01/25 02:43:27;;;;;;;61.60;33.33;;;;;;;4.18;75.58;103363.94;5027600;28;20038;-70
2022/01/25 02:49:08;;;;;;;58.92;33.90;;;;;;;4.15;75.37;103369.03;5031118;28;20046;-70
2022/01/25 02:51:45;;;;;;;58.15;33.08;;;;;;;4.14;75.78;103364.66;5016022;28;20061;-71
2022/01/25 02:54:15;;;;;;;60.78;32.30;;;;;;;4.13;75.55;103362.88;5032488;28;20041;-70
2022/01/25 02:56:45;;;;;;;59.63;33.35;;;;;;;4.12;75.58;103364.59;5024791;28;20046;-69
2022/01/25 02:59:17;;;;;;;63.80;33.88;;;;;;;4.11;75.70;103357.59;5029062;28;20054;-71
2022/01/25 03:01:47;;;;;;;64.30;33.88;;;;;;;4.12;75.52;103359.38;5032397;28;20050;-71
2022/01/25 03:04:19;;;;;;;59.85;32.38;;;;;;;4.15;75.58;103351.69;5020508;28;20058;-69
2022/01/25 03:06:47;;;;;;;60.25;34.30;;;;;;;4.18;75.39;103351.75;5031170;28;20766;-69
2022/01/25 03:09:15;;;;;;;63.28;33.42;;;;;;;4.19;75.26;103347.44;5029950;28;20062;-70
2022/01/25 03:11:46;;;;;;;60.80;33.00;;;;;;;4.20;75.12;103344.00;5030910;28;20053;-70
2022/01/25 03:14:13;;;;;;;57.55;31.92;;;;;;;4.20;75.11;103339.66;5029385;28;20112;-71
2022/01/25 03:16:52;;;;;;;64.65;33.83;;;;;;;4.23;74.69;103338.00;5019725;28;20038;-71
2022/01/25 03:22:18;;;;;;;58.67;32.13;;;;;;;4.23;74.73;103340.63;5027034;28;20049;-68
2022/01/25 03:24:47;;;;;;;59.90;33.70;;;;;;;4.22;74.49;103324.06;5021561;28;20042;-69
2022/01/25 03:27:14;;;;;;;61.53;33.13;;;;;;;4.23;74.58;103332.78;5021127;28;20121;-68
2022/01/25 03:29:41;;;;;;;57.72;32.58;;;;;;;4.25;74.50;103331.13;5025394;28;20520;-70
2022/01/25 03:32:08;;;;;;;62.47;33.42;;;;;;;4.24;74.38;103331.94;5023012;28;20515;-69
2022/01/25 03:34:36;;;;;;;63.00;32.72;;;;;;;4.23;74.27;103323.22;5032393;28;20056;-68
2022/01/25 03:37:04;;;;;;;61.08;32.75;;;;;;;4.22;74.32;103321.47;5031829;28;20045;-67
2022/01/25 03:39:31;;;;;;;61.53;32.78;;;;;;;4.20;74.39;103310.94;5019134;28;20050;-68
2022/01/25 03:41:58;;;;;;;54.35;31.90;;;;;;;4.21;74.55;103314.47;5025320;28;20053;-67
2022/01/25 03:44:25;;;;;;;65.60;35.22;;;;;;;4.20;74.46;103310.06;5021317;28;20054;-68
2022/01/25 03:47:01;;;;;;;58.75;33.13;;;;;;;4.19;74.42;103327.44;5031075;28;20039;-69
2022/01/25 03:52:13;;;;;;;62.25;33.90;;;;;;;4.19;74.72;103321.34;5028440;28;20039;-66
2022/01/25 03:54:40;;;;;;;61.38;34.25;;;;;;;4.17;74.28;103321.25;5024709;28;20042;-66
2022/01/25 03:57:08;;;;;;;60.85;32.45;;;;;;;4.19;74.34;103329.16;5019420;28;20062;-68
2022/01/25 03:59:35;;;;;;;63.33;34.28;;;;;;;4.20;74.14;103330.94;5021765;28;20045;-68
2022/01/25 04:02:02;;;;;;;68.03;34.78;;;;;;;4.21;74.15;103322.28;5025469;28;20042;-68
2022/01/25 04:04:31;;;;;;;60.65;35.20;;;;;;;4.22;74.28;103333.59;5019604;28;20549;-69
2022/01/25 04:06:58;;;;;;;62.83;35.58;;;;;;;4.24;74.09;103325.00;5029184;28;20126;-69
2022/01/25 04:09:28;;;;;;;61.47;35.65;;;;;;;4.24;73.41;103325.00;5028787;28;20039;-69
2022/01/25 04:11:55;;;;;;;60.47;34.38;;;;;;;4.26;73.40;103331.16;5031283;28;20538;-68
2022/01/25 04:14:22;;;;;;;58.22;33.22;;;;;;;4.29;73.48;103319.94;5025367;28;20042;-68
2022/01/25 04:16:59;;;;;;;60.78;32.50;;;;;;;4.29;73.50;103322.53;5025826;28;20112;-69
2022/01/25 04:19:44;;;;;;;61.25;34.60;;;;;;;4.27;73.46;103313.78;5028015;28;20044;-69
2022/01/25 04:24:54;;;;;;;63.38;35.33;;;;;;;4.25;73.44;103324.16;5023989;28;20046;-69
2022/01/25 04:27:23;;;;;;;60.08;34.05;;;;;;;4.23;73.78;103315.38;5029622;28;20049;-69
2022/01/25 04:29:52;;;;;;;62.35;34.85;;;;;;;4.22;73.70;103316.22;5023469;28;20045;-69
2022/01/25 04:32:33;;;;;;;63.38;34.28;;;;;;;4.22;73.66;103311.00;5024998;28;20043;-69
2022/01/25 04:35:12;;;;;;;63.10;34.40;;;;;;;4.22;73.88;103317.94;5026787;28;20041;-69
2022/01/25 04:49:02;;;;;;;62.50;33.50;;;;;;;4.23;73.97;103319.72;5031030;28;20046;-68
2022/01/25 04:54:40;;;;;;;59.03;32.55;;;;;;;4.22;74.04;103316.22;5031359;28;20082;-67
2022/01/25 05:00:06;;;;;;;62.78;34.63;;;;;;;4.18;74.26;103311.72;5017102;28;20064;-68
2022/01/25 05:05:10;;;;;;;62.92;33.97;;;;;;;4.16;74.15;103318.59;5035014;28;20042;-68
2022/01/25 05:08:03;;;;;;;63.30;34.42;;;;;;;4.13;74.13;103315.88;5031669;28;20480;-67
2022/01/25 05:10:30;;;;;;;67.93;36.33;;;;;;;4.12;74.37;103316.75;5024468;28;20421;-67
2022/01/25 05:13:27;;;;;;;68.95;36.72;;;;;;;4.12;74.17;103315.00;5027851;28;20038;-67
2022/01/25 05:18:48;;;;;;;61.95;34.50;;;;;;;4.11;74.23;103315.84;5034134;28;20049;-67
2022/01/25 05:24:01;;;;;;;67.43;35.85;;;;;;;4.11;74.50;103313.22;5020346;28;20049;-70
2022/01/25 05:26:28;;;;;;;70.85;36.88;;;;;;;4.09;74.37;103321.84;5031414;28;20038;-69
2022/01/25 05:28:59;;;;;;;70.00;37.50;;;;;;;4.08;74.44;103320.06;5024710;28;20121;-69
2022/01/25 05:31:26;;;;;;;69.00;35.65;;;;;;;4.06;74.44;103306.97;5031244;28;20140;-70
2022/01/25 05:33:53;;;;;;;64.03;35.47;;;;;;;4.06;74.21;103317.41;5027631;28;20120;-65
2022/01/25 05:36:24;;;;;;;70.35;36.10;;;;;;;4.07;74.27;103323.50;5026824;28;20048;-67
2022/01/25 05:38:55;;;;;;;69.72;35.28;;;;;;;4.08;74.08;103318.31;5031641;28;20038;-66
2022/01/25 05:41:27;;;;;;;69.47;36.38;;;;;;;4.12;74.18;103314.13;5024647;28;20156;-66
2022/01/25 05:46:32;;;;;;;67.93;37.08;;;;;;;4.12;74.14;103321.97;5024818;28;20045;-69
2022/01/25 05:48:59;;;;;;;64.22;35.10;;;;;;;4.12;74.40;103314.13;5021046;28;20089;-69
2022/01/25 05:51:26;;;;;;;70.53;36.30;;;;;;;4.10;74.37;103307.94;5025405;28;20042;-69
2022/01/25 05:53:53;;;;;;;71.03;36.63;;;;;;;4.09;74.12;103314.00;5005791;28;20046;-68
2022/01/25 05:56:21;;;;;;;67.38;36.28;;;;;;;4.05;73.93;103318.22;5027379;28;20046;-69
2022/01/25 05:58:48;;;;;;;68.60;36.00;;;;;;;4.02;74.06;103318.97;4996974;28;20126;-71
2022/01/25 06:01:18;;;;;;;69.70;37.70;;;;;;;4.02;73.91;103316.38;4980978;28;20047;-68
2022/01/25 06:03:46;;;;;;;66.07;35.85;;;;;;;4.00;73.86;103318.06;4980151;28;20558;-69
2022/01/25 06:06:14;;;;;;;71.85;36.90;;;;;;;3.99;73.95;103304.94;4977977;28;20441;-70
2022/01/25 06:08:41;;;;;;;72.95;36.38;;;;;;;3.98;73.96;103308.38;4985140;28;20043;-70
2022/01/25 06:11:08;;;;;;;69.05;36.28;;;;;;;3.98;73.67;103309.28;4988450;28;20054;-68
2022/01/25 06:13:35;;;;;;;73.03;36.75;;;;;;;3.98;73.68;103304.06;4993277;28;20046;-68
2022/01/25 06:16:04;;;;;;;69.25;37.42;;;;;;;3.96;73.66;103305.72;5001051;28;20053;-70
2022/01/25 06:18:32;;;;;;;71.35;37.63;;;;;;;3.99;73.51;103298.00;4987803;28;20482;-69
2022/01/25 06:20:59;;;;;;;71.38;37.85;;;;;;;4.02;73.30;103297.22;4989071;28;20405;-69
2022/01/25 06:23:26;;;;;;;73.13;37.65;;;;;;;4.07;73.18;103294.78;4999606;28;20502;-68
2022/01/25 06:25:53;;;;;;;69.75;36.72;;;;;;;4.08;73.37;103299.16;4979675;28;20588;-68
2022/01/25 06:28:20;;;;;;;68.63;36.83;;;;;;;4.08;73.44;103294.81;4976563;28;20047;-69
2022/01/25 06:30:48;;;;;;;65.18;36.00;;;;;;;4.07;73.67;103298.25;4991250;28;20489;-69
2022/01/25 06:33:15;;;;;;;69.90;36.05;;;;;;;4.07;73.58;103294.78;4989256;28;20047;-69
2022/01/25 06:35:45;;;;;;;65.22;36.28;;;;;;;4.07;73.46;103298.25;4987889;28;20039;-69
2022/01/25 06:38:13;;;;;;;71.18;36.00;;;;;;;4.09;73.36;103295.72;4989003;28;20094;-68
2022/01/25 06:40:41;;;;;;;68.97;36.33;;;;;;;4.08;73.52;103296.56;4985090;28;20031;-68
2022/01/25 06:43:08;;;;;;;72.47;36.92;;;;;;;4.08;73.50;103307.00;4986265;28;20081;-69
2022/01/25 06:45:39;;;;;;;75.13;36.67;;;;;;;4.06;73.59;103308.66;4990387;28;20150;-69
2022/01/25 06:48:09;;;;;;;69.88;35.70;;;;;;;4.04;73.53;103306.00;4992604;28;20078;-69
2022/01/25 06:50:37;;;;;;;69.60;37.08;;;;;;;4.03;73.70;103307.72;4993464;28;20089;-68
2022/01/25 06:53:05;;;;;;;69.80;34.85;;;;;;;4.03;73.48;103309.44;4990350;28;20047;-70
2022/01/25 06:55:41;;;;;;;65.43;34.10;;;;;;;4.01;72.40;103306.78;4985391;28;20470;-69
2022/01/25 06:58:09;;;;;;;63.75;33.75;;;;;;;4.01;72.73;103311.09;5018067;28;20108;-69
2022/01/25 07:00:37;;;;;;;67.18;35.83;;;;;;;4.04;72.46;103317.31;5026902;28;20118;-69
2022/01/25 07:03:05;;;;;;;67.00;34.88;;;;;;;4.06;72.41;103325.22;5024638;28;20138;-69
2022/01/25 07:05:34;;;;;;;71.28;36.40;;;;;;;4.06;72.82;103329.53;5025211;28;20045;-69
2022/01/25 07:08:02;;;;;;;73.88;36.97;;;;;;;4.07;72.64;103326.97;5029476;28;20030;-69
2022/01/25 07:10:29;;;;;;;74.80;36.53;;;;;;;4.08;72.81;103320.94;5028041;28;20089;-69
2022/01/25 07:12:56;;;;;;;68.25;37.30;;;;;;;4.11;72.70;103326.28;5023892;28;20050;-69
2022/01/25 07:15:23;;;;;;;72.35;37.00;;;;;;;4.13;72.82;103321.09;5028356;28;20042;-69
2022/01/25 07:17:50;;;;;;;67.53;36.15;;;;;;;4.14;72.66;103325.50;5026710;28;20042;-69
2022/01/25 07:20:17;;;;;;;78.00;36.70;;;;;;;4.13;72.82;103331.53;5026202;28;20046;-69
2022/01/25 07:23:04;;;;;;;65.57;34.35;;;;;;;4.09;73.16;103321.84;5028501;28;20042;-69
2022/01/25 07:25:31;;;;;;;69.47;35.30;;;;;;;4.08;73.09;103327.88;5035513;28;20046;-69
2022/01/25 07:27:59;;;;;;;68.45;35.47;;;;;;;4.07;73.24;103324.38;5024035;28;20053;-69
2022/01/25 07:30:26;;;;;;;65.25;34.80;;;;;;;4.06;73.37;103333.06;5018710;28;20049;-68
2022/01/25 07:32:53;;;;;;;70.20;36.05;;;;;;;4.06;73.39;103329.53;5014834;28;21014;-70
2022/01/25 07:35:22;;;;;;;72.32;36.50;;;;;;;4.04;73.27;103333.00;5018501;28;20046;-69
2022/01/25 07:37:52;;;;;;;68.07;35.72;;;;;;;4.03;73.36;103331.22;5016981;28;20070;-69
2022/01/25 07:40:28;;;;;;;77.68;37.30;;;;;;;4.01;73.23;103329.38;5027694;28;20046;-69
2022/01/25 07:43:00;;;;;;;77.32;38.10;;;;;;;4.00;73.07;103327.59;5028679;28;20058;-69
2022/01/25 07:45:35;;;;;;;74.47;36.08;;;;;;;3.99;73.13;103325.81;5016722;28;20078;-69
2022/01/25 07:48:08;;;;;;;77.43;36.83;;;;;;;4.02;73.10;103325.94;5033160;28;20054;-69
2022/01/25 07:50:38;;;;;;;77.18;35.33;;;;;;;4.06;72.95;103324.31;5033940;28;20046;-68
2022/01/25 07:53:05;;;;;;;82.05;36.97;;;;;;;4.08;72.94;103328.75;5022351;28;20039;-69
2022/01/25 07:55:33;;;;;;;74.40;36.95;;;;;;;4.10;72.56;103328.84;5024536;28;20038;-68
2022/01/25 07:58:00;;;;;;;70.72;37.05;;;;;;;4.11;72.49;103328.00;5029219;28;20046;-69
2022/01/25 08:00:28;;;;;;;76.03;35.97;;;;;;;4.12;72.31;103332.41;5033569;28;20045;-68
2022/01/25 08:02:55;;;;;;;71.47;36.70;;;;;;;4.11;72.21;103331.50;5017723;28;20046;-69
2022/01/25 08:05:27;;;;;;;75.47;35.90;;;;;;;4.13;72.21;103326.31;5024107;28;20061;-69
2022/01/25 08:08:23;;;;;;;72.05;35.25;;;;;;;4.14;72.20;103328.09;4958044;28;20054;-69
2022/01/25 08:11:13;;;;;;;73.32;36.55;;;;;;;4.17;71.80;103331.72;4875853;29;20771;-69
2022/01/25 08:13:48;;;;;;;80.95;36.92;;;;;;;4.16;71.31;103329.97;4884480;29;20053;-68
2022/01/25 08:16:32;;;;;;;81.43;38.45;;;;;;;4.11;70.92;103330.63;4856886;29;20194;-68
2022/01/25 08:19:08;;;;;;;80.75;36.85;;;;;;;4.08;71.05;103328.75;4868658;29;20061;-69
2022/01/25 08:21:51;;;;;;;81.05;37.92;;;;;;;4.08;71.30;103331.38;4852358;29;20061;-69
2022/01/25 08:24:32;;;;;;;70.93;34.55;;;;;;;4.09;71.54;103333.16;4867518;29;20081;-68
2022/01/25 08:27:06;;;;;;;70.82;35.15;;;;;;;4.13;71.62;103328.94;4866754;29;20106;-69
2022/01/25 08:29:47;;;;;;;74.10;36.25;;;;;;;4.16;71.45;103331.66;4868545;29;20061;-69
2022/01/25 08:32:29;;;;;;;68.38;34.83;;;;;;;4.20;71.50;103337.06;4885158;29;20049;-69
2022/01/25 08:35:13;;;;;;;74.40;36.60;;;;;;;4.24;71.19;103338.03;4863163;29;20069;-69
2022/01/25 08:37:47;;;;;;;70.80;35.03;;;;;;;4.25;70.92;103338.94;4872771;29;20647;-68
2022/01/25 08:40:40;;;;;;;77.15;35.58;;;;;;;4.25;70.92;103345.03;4859790;29;20709;-69
2022/01/25 08:43:24;;;;;;;71.38;34.78;;;;;;;4.28;70.87;103355.63;4927384;28;20056;-69
2022/01/25 08:46:08;;;;;;;78.03;36.67;;;;;;;4.30;70.70;103353.03;4949667;28;20039;-69
2022/01/25 08:49:00;;;;;;;78.00;35.50;;;;;;;4.31;70.73;103349.59;5021754;28;20332;-70
2022/01/25 08:51:41;;;;;;;72.43;36.03;;;;;;;4.32;70.69;103356.59;5013682;28;20060;-69
2022/01/25 08:54:17;;;;;;;72.30;36.03;;;;;;;4.34;70.81;103339.28;5026580;28;20058;-68
2022/01/25 08:56:56;;;;;;;75.25;35.58;;;;;;;4.33;70.65;103346.22;5021920;28;20086;-69
2022/01/25 08:59:37;;;;;;;76.25;35.85;;;;;;;4.34;70.29;103341.88;4971182;28;20059;-68
2022/01/25 09:02:04;;;;;;;79.88;36.30;;;;;;;4.34;70.54;103350.59;4979341;28;20059;-68
2022/01/25 09:04:32;;;;;;;72.75;34.20;;;;;;;4.33;70.73;103343.59;4966837;28;20051;-68
2022/01/25 09:06:59;;;;;;;71.32;34.38;;;;;;;4.33;70.42;103340.09;4965992;28;20062;-68
2022/01/25 09:09:26;;;;;;;73.05;36.17;;;;;;;4.33;70.11;103354.03;4956152;28;20043;-68
2022/01/25 09:11:53;;;;;;;69.63;34.45;;;;;;;4.30;69.88;103353.94;4970899;28;20046;-68
2022/01/25 09:14:20;;;;;;;72.70;34.65;;;;;;;4.28;69.76;103365.16;4971982;28;20043;-69
2022/01/25 09:16:48;;;;;;;73.95;35.90;;;;;;;4.26;70.09;103365.09;4955456;28;20063;-69
2022/01/25 09:19:18;;;;;;;73.00;35.70;;;;;;;4.27;70.18;103363.41;4952653;28;20046;-69
2022/01/25 09:21:45;;;;;;;72.38;35.05;;;;;;;4.28;70.26;103365.16;4970047;28;20047;-68
2022/01/25 09:24:12;;;;;;;81.78;36.60;;;;;;;4.31;69.88;103365.28;4970910;28;20109;-69
2022/01/25 09:26:39;;;;;;;74.60;36.78;;;;;;;4.30;70.17;103371.31;4971221;28;20152;-69
2022/01/25 09:29:06;;;;;;;73.47;36.03;;;;;;;4.30;70.06;103374.84;4970987;28;20109;-68
2022/01/25 09:31:34;;;;;;;81.25;36.25;;;;;;;4.31;70.48;103371.41;4971837;28;20048;-68
2022/01/25 09:34:01;;;;;;;76.45;36.22;;;;;;;4.33;70.50;103377.56;4972943;28;20122;-68
2022/01/25 09:36:29;;;;;;;75.68;35.75;;;;;;;4.33;70.23;103374.94;4984870;28;20149;-69
2022/01/25 09:38:57;;;;;;;67.45;33.53;;;;;;;4.33;70.01;103377.56;5019580;28;20417;-68
2022/01/25 09:41:29;;;;;;;71.63;35.00;;;;;;;4.34;69.79;103375.84;5017839;28;20416;-69
2022/01/25 09:43:56;;;;;;;72.20;36.38;;;;;;;4.35;69.67;103381.13;5026023;28;20116;-69
2022/01/25 09:46:23;;;;;;;65.43;33.47;;;;;;;4.35;69.53;103375.00;5020014;28;20066;-69
2022/01/25 09:48:51;;;;;;;72.97;35.03;;;;;;;4.35;69.74;103375.00;5017707;28;20588;-69
2022/01/25 09:51:20;;;;;;;75.25;35.08;;;;;;;4.37;69.49;103377.66;5026105;28;20039;-68
2022/01/25 09:53:47;;;;;;;74.85;35.40;;;;;;;4.37;69.78;103373.34;5013278;28;20046;-68
2022/01/25 09:56:14;;;;;;;80.10;37.03;;;;;;;4.40;69.62;103375.19;5026175;28;20468;-68
2022/01/25 09:58:42;;;;;;;80.32;36.50;;;;;;;4.39;69.58;103376.88;5013001;28;20050;-68
2022/01/25 10:01:10;;;;;;;68.07;33.45;;;;;;;4.41;69.67;103374.34;5028734;28;20067;-69
2022/01/25 10:03:39;;;;;;;77.70;34.65;;;;;;;4.42;69.79;103374.38;5033128;28;20069;-68
2022/01/25 10:06:16;;;;;;;79.45;35.20;;;;;;;4.45;69.74;103382.34;5019128;28;20050;-68
2022/01/25 10:08:45;;;;;;;70.15;33.65;;;;;;;4.47;69.78;103380.69;5024362;28;20042;-67
2022/01/25 10:11:15;;;;;;;72.05;35.08;;;;;;;4.51;69.87;103392.13;5012269;28;20038;-69
2022/01/25 10:13:51;;;;;;;72.65;34.20;;;;;;;4.52;69.53;103393.91;5029049;28;20082;-69
2022/01/25 10:16:30;;;;;;;66.45;32.08;;;;;;;4.50;69.17;103388.63;5012790;28;20113;-69
2022/01/25 10:19:06;;;;;;;65.65;32.28;;;;;;;4.49;68.93;103389.44;5024986;28;20041;-69
2022/01/25 10:21:40;;;;;;;70.80;34.47;;;;;;;4.47;68.83;103388.53;5023959;28;20755;-69
2022/01/25 10:24:13;;;;;;;69.38;32.97;;;;;;;4.46;69.16;103385.84;5016056;28;20045;-69
2022/01/25 10:26:58;;;;;;;72.68;34.35;;;;;;;4.47;69.16;103391.13;5027282;28;20757;-69
2022/01/25 10:29:36;;;;;;;68.78;32.85;;;;;;;4.49;69.18;103389.44;5017810;28;20069;-68
2022/01/25 10:32:14;;;;;;;67.22;32.88;;;;;;;4.53;68.84;103386.94;5020130;28;20035;-69
2022/01/25 10:34:49;;;;;;;68.35;33.20;;;;;;;4.50;68.73;103380.78;5013917;28;20050;-69
2022/01/25 10:37:20;;;;;;;;;;;;;;;4.49;68.86;103385.94;5022593;28;20527;-69
2022/01/25 10:39:51;;;;;;;64.13;31.98;;;;;;;4.52;69.03;103370.41;5020774;28;20385;-69
2022/01/25 10:42:31;;;;;;;68.15;32.80;;;;;;;4.56;68.89;103372.25;5022289;28;20042;-69
2022/01/25 10:45:16;;;;;;;65.30;31.90;;;;;;;4.59;68.89;103366.25;5020915;28;20117;-69
2022/01/25 10:47:51;;;;;;;66.80;32.42;;;;;;;4.62;68.53;103366.38;5012463;28;20934;-68
2022/01/25 10:50:20;;;;;;;71.63;32.80;;;;;;;4.63;68.42;103369.03;5011974;28;20038;-69
2022/01/25 10:53:16;;;;;;;66.20;32.42;;;;;;;4.66;68.35;103370.88;5016592;28;20416;-69
2022/01/25 10:55:51;;;;;;;65.60;31.80;;;;;;;4.69;68.24;103372.69;5021561;28;20476;-69
2022/01/25 10:58:19;;;;;;;65.05;31.52;;;;;;;4.68;67.99;103369.19;5018480;28;20641;-68
2022/01/25 11:00:51;;;;;;;71.72;33.03;;;;;;;4.70;67.45;103377.09;5031316;28;20037;-68
2022/01/25 11:03:32;;;;;;;64.15;33.03;;;;;;;4.66;67.58;103370.88;5024216;28;20576;-68
2022/01/25 11:06:18;;;;;;;66.40;32.08;;;;;;;4.63;67.61;103374.25;5019433;28;20062;-68
2022/01/25 11:08:50;;;;;;;67.07;32.05;;;;;;;4.63;67.59;103373.38;5017956;28;20092;-69
2022/01/25 11:11:45;;;;;;;65.15;31.98;;;;;;;4.63;67.39;103373.38;5018651;28;20520;-68
2022/01/25 11:17:02;;;;;;;65.78;31.90;;;;;;;4.61;67.75;103373.34;5027802;28;20042;-68
2022/01/25 11:19:30;;;;;;;74.15;32.55;;;;;;;4.60;67.64;103373.25;5030710;28;20049;-68
2022/01/25 11:21:59;;;;;;;70.22;31.45;;;;;;;4.61;68.23;103375.94;5024268;28;20449;-66
2022/01/25 11:24:31;;;;;;;65.63;32.97;;;;;;;4.64;68.24;103378.66;5018747;28;20042;-68
2022/01/25 11:27:04;;;;;;;66.07;32.53;;;;;;;4.68;68.06;103382.25;5026275;28;20034;-68
2022/01/25 11:29:39;;;;;;;66.95;31.33;;;;;;;4.70;67.91;103380.59;5029867;28;20049;-68
2022/01/25 11:32:16;;;;;;;70.45;32.08;;;;;;;4.69;67.51;103385.78;5023828;28;20531;-67
2022/01/25 11:34:45;;;;;;;71.35;31.35;;;;;;;4.65;67.29;103383.03;5023616;28;20068;-67
2022/01/25 11:37:12;;;;;;;68.75;31.52;;;;;;;4.61;66.84;103382.88;5026289;28;20085;-67
2022/01/25 11:39:47;;;;;;;71.75;33.35;;;;;;;4.57;66.79;103388.84;5042410;28;20518;-67
2022/01/25 11:42:23;;;;;;;65.22;31.63;;;;;;;4.51;66.81;103403.47;5015182;28;20042;-68
2022/01/25 11:44:57;;;;;;;65.47;32.80;;;;;;;4.45;67.26;103398.03;5028788;28;20046;-68
2022/01/25 11:47:37;;;;;;;67.70;32.72;;;;;;;4.45;67.42;103394.50;5024934;28;20412;-68
2022/01/25 11:50:12;;;;;;;66.07;31.88;;;;;;;4.45;67.68;103389.28;5033079;28;20037;-68
2022/01/25 11:52:53;;;;;;;77.07;32.28;;;;;;;4.51;67.90;103386.91;5034060;28;20048;-67
2022/01/25 11:55:30;;;;;;;69.65;31.88;;;;;;;4.53;67.90;103387.81;5025291;28;20034;-67
2022/01/25 11:58:24;;;;;;;63.47;31.45;;;;;;;4.55;67.63;103386.16;5029643;28;20066;-67
2022/01/25 12:00:56;;;;;;;68.57;32.03;;;;;;;4.57;67.79;103379.28;5024113;28;20084;-67
2022/01/25 12:03:34;;;;;;;77.43;30.95;;;;;;;4.59;68.08;103374.09;5029865;28;20047;-67
2022/01/25 12:06:20;;;;;;;68.38;31.52;;;;;;;4.64;68.25;103368.19;5030676;28;20129;-67
2022/01/25 12:09:07;;;;;;;71.82;33.03;;;;;;;4.72;68.39;103364.97;5025652;28;20064;-67
2022/01/25 12:11:50;;;;;;;68.55;31.45;;;;;;;4.76;67.91;103354.69;5011718;28;20050;-67
2022/01/25 12:14:23;;;;;;;64.65;31.67;;;;;;;4.81;67.91;103352.22;5014189;28;20042;-68
2022/01/25 12:17:33;;;;;;;74.97;31.58;;;;;;;4.88;67.92;103350.72;5014986;28;20085;-66
2022/01/25 12:20:16;;;;;;;69.57;30.95;;;;;;;4.91;67.58;103354.31;5015558;28;20069;-68
2022/01/25 12:22:47;;;;;;;67.07;31.88;;;;;;;4.94;67.34;103348.28;5037053;28;20089;-67
2022/01/25 12:25:34;;;;;;;75.88;31.83;;;;;;;4.94;67.28;103341.31;5021749;28;20106;-67
2022/01/25 12:28:09;;;;;;;66.97;32.05;;;;;;;4.94;66.72;103343.94;5014413;28;20523;-67
2022/01/25 12:30:41;;;;;;;63.53;31.30;;;;;;;4.93;66.42;103343.91;5027715;28;20117;-67
2022/01/25 12:33:29;;;;;;;65.55;32.10;;;;;;;4.88;66.53;103335.91;5021939;28;20472;-67
2022/01/25 12:35:59;;;;;;;64.47;30.67;;;;;;;4.87;66.64;103341.09;5030240;28;20424;-67
2022/01/25 12:38:47;;;;;;;65.90;31.08;;;;;;;4.87;66.53;103335.84;5022141;28;20061;-67
2022/01/25 12:41:20;;;;;;;92.80;33.47;;;;;;;4.85;66.81;103337.53;5015261;28;20046;-67
2022/01/25 12:43:53;;;;;;;67.97;31.63;;;;;;;4.87;66.68;103336.72;5027966;28;20044;-68
2022/01/25 12:46:40;;;;;;;72.95;33.33;;;;;;;4.86;66.11;103328.84;5019165;28;20050;-67
2022/01/25 12:49:14;;;;;;;66.22;31.10;;;;;;;4.84;66.24;103330.53;5014068;28;20038;-67
2022/01/25 12:51:46;;;;;;;70.18;32.22;;;;;;;4.82;66.25;103320.03;5014283;28;20121;-67
2022/01/25 12:54:17;;;;;;;75.80;34.13;;;;;;;4.84;66.65;103323.56;5031257;28;20104;-67
2022/01/25 12:56:48;;;;;;;84.32;33.00;;;;;;;4.86;66.75;103326.25;5017850;28;20034;-67
2022/01/25 12:59:20;;;;;;;69.28;32.28;;;;;;;4.90;66.96;103318.56;5022997;28;20066;-67
2022/01/25 13:01:50;;;;;;;66.97;33.00;;;;;;;4.94;66.83;103320.41;5020859;28;20080;-67
2022/01/25 13:04:18;;;;;;;73.32;31.38;;;;;;;4.97;66.99;103319.63;5021308;28;20088;-67
2022/01/25 13:06:51;;;;;;;76.57;32.20;;;;;;;5.00;67.10;103316.22;5038103;28;20108;-67
2022/01/25 13:17:16;;;;;;;69.32;32.08;;;;;;;5.02;66.62;103310.22;5025481;28;20043;-67
2022/01/25 13:19:50;;;;;;;67.50;31.65;;;;;;;5.00;66.35;103309.25;5025163;28;20046;-67
2022/01/25 13:22:34;;;;;;;71.18;32.85;;;;;;;4.94;66.39;103309.94;5028767;28;20042;-67
2022/01/25 13:27:54;;;;;;;74.25;33.92;;;;;;;4.85;66.36;103308.78;5014443;28;20058;-67